Time;durP1;ratioP1;P1;durP2;ratioP2;P2;SDS_P1;SDS_P2;PMS_P1;PMS_P2;Temp;Humidity;BMP_temperature;BMP_pressure;BME280_temperature;BME280_humidity;BME280_pressure;Samples;Min_cycle;Max_cycle;Signal;HPM_P1;HPM_P2
2022/07/21 00:01:27;;;;;;;1999.90;999.90;;;;;;;23.90;72.85;95713.31;5051854;28;20037;-67
2022/07/21 00:03:53;;;;;;;1999.90;999.90;;;;;;;23.75;72.10;95701.56;5051543;28;20032;-67
2022/07/21 00:06:18;;;;;;;1999.90;999.90;;;;;;;23.80;72.27;95706.66;5052722;28;20381;-67
2022/07/21 00:08:43;;;;;;;1999.90;999.90;;;;;;;23.23;72.64;95629.28;5051258;28;20370;-67
2022/07/21 00:11:09;;;;;;;1999.90;999.90;;;;;;;23.58;72.44;95673.03;5052403;28;20095;-67
2022/07/21 00:13:34;;;;;;;1999.90;999.90;;;;;;;23.95;72.72;95725.78;5051261;28;20021;-67
2022/07/21 00:15:59;;;;;;;1999.90;999.90;;;;;;;23.85;72.48;95703.59;5051501;28;20051;-67
2022/07/21 00:18:28;;;;;;;1999.90;999.90;;;;;;;23.92;72.10;95718.38;5050696;28;20036;-68
2022/07/21 00:20:56;;;;;;;1999.90;999.90;;;;;;;22.75;72.17;95553.22;5031091;28;20036;-67
2022/07/21 00:23:25;;;;;;;1999.90;999.90;;;;;;;24.00;71.97;95737.06;5030710;28;20021;-69
2022/07/21 00:25:51;;;;;;;1999.90;999.90;;;;;;;23.96;71.47;95725.41;5050625;28;20439;-67
2022/07/21 00:28:17;;;;;;;1999.90;999.90;;;;;;;24.02;70.32;95742.94;5052223;28;20171;-66
2022/07/21 00:30:42;;;;;;;1999.90;999.90;;;;;;;23.95;70.46;95744.78;5048478;28;20016;-67
2022/07/21 00:33:08;;;;;;;1999.90;999.90;;;;;;;23.67;69.78;95710.78;5051596;28;20091;-67
2022/07/21 00:35:33;;;;;;;1999.90;999.90;;;;;;;23.81;69.69;95751.69;5050295;28;20682;-67
2022/07/21 00:37:59;;;;;;;1999.90;999.90;;;;;;;23.61;70.10;95723.91;5065719;28;20496;-68
2022/07/21 00:40:24;;;;;;;1999.90;999.90;;;;;;;23.74;69.89;95735.28;5033298;28;20033;-69
2022/07/21 00:42:49;;;;;;;1999.90;999.90;;;;;;;23.91;69.69;95746.72;5031527;28;20060;-68
2022/07/21 00:45:15;;;;;;;1999.90;999.90;;;;;;;24.07;69.50;95749.97;5049614;28;20090;-67
2022/07/21 00:47:41;;;;;;;1999.90;999.90;;;;;;;23.99;69.74;95729.31;5050700;28;20041;-68
2022/07/21 00:50:09;;;;;;;1999.90;999.90;;;;;;;24.21;70.31;95763.66;5050948;28;20020;-68
2022/07/21 00:52:35;;;;;;;1999.90;999.90;;;;;;;24.27;69.75;95759.44;5050520;28;20036;-69
2022/07/21 00:57:56;;;;;;;1999.90;999.90;;;;;;;24.30;68.65;95757.88;5047802;28;20048;-67
2022/07/21 01:00:28;;;;;;;1999.90;999.90;;;;;;;24.32;68.29;95756.38;5049561;28;20071;-68
2022/07/21 01:02:56;;;;;;;1999.90;999.90;;;;;;;24.34;68.08;95769.56;5048863;28;20025;-68
2022/07/21 01:05:22;;;;;;;1999.90;999.90;;;;;;;24.24;67.80;95754.75;5049756;28;20071;-67
2022/07/21 01:07:50;;;;;;;1999.90;999.90;;;;;;;24.06;67.88;95722.00;5048115;28;20037;-67
2022/07/21 01:10:17;;;;;;;1999.90;999.90;;;;;;;24.15;67.76;95724.38;5049891;28;20025;-67
2022/07/21 01:12:42;;;;;;;1999.90;999.90;;;;;;;24.10;67.53;95730.16;5050021;28;20033;-68
2022/07/21 01:15:09;;;;;;;1999.90;999.90;;;;;;;24.35;67.90;95763.78;5048481;28;20557;-68
2022/07/21 01:17:35;;;;;;;1999.90;999.90;;;;;;;24.41;67.61;95755.28;5050194;28;20029;-67
2022/07/21 01:20:06;;;;;;;1999.90;999.90;;;;;;;24.47;67.74;95753.78;5050128;28;20033;-68
2022/07/21 01:22:33;;;;;;;1999.90;999.90;;;;;;;24.51;67.96;95762.72;5049834;28;20440;-68
2022/07/21 01:24:59;;;;;;;1999.90;999.90;;;;;;;24.22;67.67;95702.69;5048715;28;20037;-68
2022/07/21 01:27:26;;;;;;;1999.90;999.90;;;;;;;24.44;67.46;95732.78;5050079;28;20057;-68
2022/07/21 01:29:52;;;;;;;1999.90;999.90;;;;;;;24.58;67.32;95746.47;5050413;28;20036;-68
2022/07/21 01:32:17;;;;;;;1999.90;999.90;;;;;;;24.54;67.58;95732.06;5047889;28;20028;-68
2022/07/21 01:34:42;;;;;;;1999.90;999.90;;;;;;;24.48;67.90;95709.88;5048875;28;20025;-68
2022/07/21 01:37:08;;;;;;;1999.90;999.90;;;;;;;24.55;67.42;95714.56;5058039;28;20021;-68
2022/07/21 01:42:17;;;;;;;1999.90;999.90;;;;;;;24.35;67.13;95679.50;5050336;28;20075;-67
2022/07/21 01:44:42;;;;;;;1999.90;999.90;;;;;;;24.43;66.51;95728.50;5048700;28;20033;-68
2022/07/21 01:47:07;;;;;;;1999.90;999.90;;;;;;;24.35;67.55;95722.19;5049556;28;20107;-68
2022/07/21 01:49:33;;;;;;;1999.90;999.90;;;;;;;24.48;67.84;95747.19;5049684;28;20635;-68
2022/07/21 01:51:58;;;;;;;1999.90;999.90;;;;;;;24.42;67.27;95729.66;5049527;28;20112;-68
2022/07/21 01:54:23;;;;;;;1999.90;999.90;;;;;;;24.59;67.54;95750.75;5047650;28;20021;-68
2022/07/21 01:56:48;;;;;;;1999.90;999.90;;;;;;;24.50;67.55;95725.81;5048639;28;20028;-68
2022/07/21 01:59:14;;;;;;;1999.90;999.90;;;;;;;24.54;67.05;95723.91;5048892;28;20017;-69
2022/07/21 02:01:39;;;;;;;1999.90;999.90;;;;;;;24.52;67.26;95713.41;5063730;28;20028;-68
2022/07/21 02:04:05;;;;;;;1999.90;999.90;;;;;;;24.56;66.99;95713.41;5048285;28;20032;-68
2022/07/21 02:06:31;;;;;;;1999.90;999.90;;;;;;;24.69;66.45;95730.22;5050312;28;20053;-68
2022/07/21 02:08:56;;;;;;;1999.90;999.90;;;;;;;24.66;66.16;95718.13;5046713;28;20402;-68
2022/07/21 02:11:22;;;;;;;1999.90;999.90;;;;;;;24.86;65.84;95743.88;5050325;28;20117;-68
2022/07/21 02:13:48;;;;;;;1999.90;999.90;;;;;;;24.71;66.02;95723.22;5047741;28;20111;-68
2022/07/21 02:16:14;;;;;;;1999.90;999.90;;;;;;;24.66;65.97;95707.25;5046386;28;20055;-68
2022/07/21 02:18:40;;;;;;;1999.90;999.90;;;;;;;24.99;65.63;95752.50;5048249;28;20040;-68
2022/07/21 02:21:06;;;;;;;1999.90;999.90;;;;;;;25.01;65.26;95761.06;5050047;28;20025;-68
2022/07/21 02:23:32;;;;;;;1999.90;999.90;;;;;;;24.84;65.57;95737.28;5046544;28;20074;-68
2022/07/21 02:25:58;;;;;;;1999.90;999.90;;;;;;;25.02;65.42;95759.91;5065170;28;20031;-68
2022/07/21 02:28:24;;;;;;;1999.90;999.90;;;;;;;24.97;64.17;95759.47;5049311;28;20048;-69
2022/07/21 02:30:50;;;;;;;1999.90;999.90;;;;;;;24.99;64.80;95768.06;5047760;28;20056;-70
2022/07/21 02:33:16;;;;;;;1999.90;999.90;;;;;;;24.88;64.19;95757.91;5048569;28;20106;-69
2022/07/21 02:35:41;;;;;;;1999.90;999.90;;;;;;;24.85;64.51;95755.94;5048855;28;20476;-69
2022/07/21 02:38:07;;;;;;;1999.90;999.90;;;;;;;25.01;64.53;95765.72;5045984;28;20462;-68
2022/07/21 02:40:32;;;;;;;1999.90;999.90;;;;;;;24.65;63.03;95746.50;5030009;28;20025;-68
2022/07/21 02:42:58;;;;;;;1999.90;999.90;;;;;;;24.73;64.34;95769.88;5061586;28;20033;-68
2022/07/21 02:45:24;;;;;;;1999.90;999.90;;;;;;;24.33;64.44;95744.31;5049179;28;20025;-68
2022/07/21 02:48:01;;;;;;;1999.90;999.90;;;;;;;24.49;64.72;95756.88;5047857;28;20028;-68
2022/07/21 02:50:31;;;;;;;1999.90;999.90;;;;;;;24.44;64.97;95717.22;5048698;28;20107;-69
2022/07/21 02:52:58;;;;;;;1999.90;999.90;;;;;;;24.87;64.50;95750.88;5045868;28;20653;-67
2022/07/21 02:55:25;;;;;;;1999.90;999.90;;;;;;;24.98;64.02;95753.69;5048270;28;20026;-68
2022/07/21 02:58:05;;;;;;;1999.90;999.90;;;;;;;24.76;63.71;95705.75;5049389;28;20056;-68
2022/07/21 03:00:30;;;;;;;1999.90;999.90;;;;;;;25.05;63.54;95737.38;5032502;28;20025;-68
2022/07/21 03:02:55;;;;;;;1999.90;999.90;;;;;;;25.24;63.25;95752.66;5045773;28;20087;-68
2022/07/21 03:05:21;;;;;;;1999.90;999.90;;;;;;;25.09;62.84;95712.94;5047617;28;20359;-68
2022/07/21 03:07:46;;;;;;;1999.90;999.90;;;;;;;25.18;62.65;95724.22;5048302;28;20116;-68
2022/07/21 03:10:11;;;;;;;1999.90;999.90;;;;;;;24.97;62.54;95705.06;5048344;28;20104;-68
2022/07/21 03:12:36;;;;;;;1999.90;999.90;;;;;;;24.76;62.95;95671.16;5047017;28;20115;-68
2022/07/21 03:15:02;;;;;;;1999.90;999.90;;;;;;;25.30;62.61;95756.56;5048526;28;20120;-67
2022/07/21 03:17:28;;;;;;;1999.90;999.90;;;;;;;25.25;62.58;95745.25;5047070;28;20027;-70
2022/07/21 03:19:53;;;;;;;1999.90;999.90;;;;;;;25.29;62.38;95743.34;5048043;28;20033;-67
2022/07/21 03:22:18;;;;;;;1999.90;999.90;;;;;;;25.43;62.07;95737.91;5049112;28;20029;-67
2022/07/21 03:24:43;;;;;;;1999.90;999.90;;;;;;;25.58;61.50;95739.50;5041852;28;20145;-67
2022/07/21 03:27:09;;;;;;;1999.90;999.90;;;;;;;25.55;61.29;95737.56;5048317;28;20354;-67
2022/07/21 03:29:34;;;;;;;1999.90;999.90;;;;;;;25.45;61.10;95715.75;5048526;28;20499;-70
2022/07/21 03:31:59;;;;;;;1999.90;999.90;;;;;;;25.51;60.92;95709.53;5064630;28;20043;-68
2022/07/21 03:34:25;;;;;;;1999.90;999.90;;;;;;;25.72;60.94;95733.31;5052292;28;20090;-68
2022/07/21 03:36:50;;;;;;;1999.90;999.90;;;;;;;25.66;60.42;95721.22;5051160;28;20086;-67
2022/07/21 03:39:15;;;;;;;1999.90;999.90;;;;;;;25.72;60.93;95733.31;5050918;28;20071;-68
2022/07/21 03:41:40;;;;;;;1999.90;999.90;;;;;;;25.75;60.87;95731.78;5068457;28;20476;-68
2022/07/21 03:44:06;;;;;;;1999.90;999.90;;;;;;;25.80;60.32;95739.59;5051908;28;20116;-68
2022/07/21 03:46:31;;;;;;;1999.90;999.90;;;;;;;25.76;59.46;95722.44;5051140;28;20062;-68
2022/07/21 03:48:56;;;;;;;1999.90;999.90;;;;;;;26.11;58.46;95748.94;5052141;28;20032;-68
2022/07/21 03:51:22;;;;;;;1999.90;999.90;;;;;;;26.32;58.30;95748.94;5051583;28;20492;-68
2022/07/21 03:53:47;;;;;;;1999.90;999.90;;;;;;;26.53;57.42;95780.13;5050500;28;20450;-68
2022/07/21 03:56:12;;;;;;;1999.90;999.90;;;;;;;26.40;56.63;95755.94;5042109;28;20036;-68
2022/07/21 03:58:37;;;;;;;1999.90;999.90;;;;;;;26.28;56.83;95741.91;5032633;28;20108;-68
2022/07/21 04:01:03;;;;;;;1999.90;999.90;;;;;;;26.40;56.65;95785.16;5040181;28;20497;-70
2022/07/21 04:03:30;;;;;;;1999.90;999.90;;;;;;;25.99;56.88;95752.81;5050301;28;20555;-68
2022/07/21 04:05:56;;;;;;;1999.90;999.90;;;;;;;25.91;57.80;95784.75;5049061;28;20029;-68
2022/07/21 04:08:21;;;;;;;1999.90;999.90;;;;;;;25.09;58.95;95748.31;5051805;28;20035;-67
2022/07/21 04:10:46;;;;;;;1999.90;999.90;;;;;;;24.42;62.27;95792.22;5051626;28;20082;-70
2022/07/21 04:13:13;;;;;;;1999.90;999.90;;;;;;;24.68;62.36;95783.84;5063879;28;20027;-70
2022/07/21 04:15:39;;;;;;;1999.90;999.90;;;;;;;24.10;63.76;95782.56;5036433;28;20029;-66
2022/07/21 04:18:06;;;;;;;1999.90;999.90;;;;;;;23.56;64.66;95745.19;5051693;28;20045;-71
2022/07/21 04:20:31;;;;;;;1999.90;999.90;;;;;;;23.13;67.22;95774.56;5049974;28;20107;-70
2022/07/21 04:22:57;;;;;;;1999.90;999.90;;;;;;;24.11;65.46;95792.31;5049522;28;20074;-72
2022/07/21 04:25:22;;;;;;;1999.90;999.90;;;;;;;23.92;65.59;95795.25;5051633;28;20040;-72
2022/07/21 04:27:49;;;;;;;1999.90;999.90;;;;;;;23.65;65.34;95789.16;5052099;28;20108;-71
2022/07/21 04:30:20;;;;;;;1999.90;999.90;;;;;;;23.83;65.00;95789.31;5048859;28;20029;-71
2022/07/21 04:32:46;;;;;;;1999.90;999.90;;;;;;;23.78;65.07;95768.72;5046135;28;20035;-77
2022/07/21 04:35:13;;;;;;;1999.90;999.90;;;;;;;24.07;64.69;95810.53;5051313;28;20033;-76
2022/07/21 04:37:38;;;;;;;1999.90;999.90;;;;;;;24.22;63.57;95786.19;5051383;28;20025;-75
2022/07/21 04:40:07;;;;;;;1999.90;999.90;;;;;;;24.03;64.46;95817.06;5051356;28;20041;-71
2022/07/21 04:42:33;;;;;;;1999.90;999.90;;;;;;;24.24;64.04;95811.81;5048860;28;20033;-72
2022/07/21 04:44:59;;;;;;;1999.90;999.90;;;;;;;24.47;62.16;95792.63;5049414;28;20017;-71
2022/07/21 04:47:24;;;;;;;1999.90;999.90;;;;;;;24.01;62.73;95754.19;5049178;28;20025;-75
2022/07/21 04:49:49;;;;;;;1999.90;999.90;;;;;;;23.17;65.81;95799.81;5050074;28;20520;-72
2022/07/21 04:52:15;;;;;;;1999.90;999.90;;;;;;;23.67;65.11;95821.38;5050976;28;20059;-72
2022/07/21 04:54:40;;;;;;;1999.90;999.90;;;;;;;23.40;65.73;95794.28;5049262;28;20112;-73
2022/07/21 04:57:06;;;;;;;1999.90;999.90;;;;;;;23.22;66.73;95818.50;5050410;28;20032;-71
2022/07/21 04:59:32;;;;;;;1999.90;999.90;;;;;;;23.84;64.47;95824.25;5051962;28;20029;-71
2022/07/21 05:01:58;;;;;;;1999.90;999.90;;;;;;;23.64;64.64;95817.44;5048845;28;20028;-72
2022/07/21 05:04:24;;;;;;;1999.90;999.90;;;;;;;23.49;64.70;95799.41;5050738;28;20056;-71
2022/07/21 05:06:50;;;;;;;1999.90;999.90;;;;;;;23.71;64.56;95817.53;5049132;28;20104;-72
2022/07/21 05:09:15;;;;;;;1999.90;999.90;;;;;;;24.15;63.62;95835.03;5050136;28;20909;-73
2022/07/21 05:11:40;;;;;;;1999.90;999.90;;;;;;;23.88;64.02;95826.25;5050982;28;20036;-72
2022/07/21 05:14:06;;;;;;;1999.90;999.90;;;;;;;23.92;63.72;95827.06;5050331;28;20242;-72
2022/07/21 05:16:31;;;;;;;1999.90;999.90;;;;;;;24.15;63.71;95854.84;5049953;28;20525;-71
2022/07/21 05:18:57;;;;;;;1999.90;999.90;;;;;;;24.21;63.45;95833.53;5049376;28;20036;-72
2022/07/21 05:21:22;;;;;;;1999.90;999.90;;;;;;;23.60;65.86;95846.50;5050278;28;20029;-72
2022/07/21 05:23:47;;;;;;;1999.90;999.90;;;;;;;23.49;65.92;95848.28;5049318;28;20437;-71
2022/07/21 05:26:13;;;;;;;1999.90;999.90;;;;;;;23.70;65.90;95853.19;5049795;28;20032;-71
2022/07/21 05:28:39;;;;;;;1999.90;999.90;;;;;;;23.89;64.51;95846.81;5048802;28;20115;-72
2022/07/21 05:31:04;;;;;;;1999.90;999.90;;;;;;;24.02;64.13;95845.41;5049082;28;20025;-72
2022/07/21 05:33:30;;;;;;;1999.90;999.90;;;;;;;23.98;63.95;95844.59;5049452;28;20022;-71
2022/07/21 05:35:55;;;;;;;1999.90;999.90;;;;;;;23.60;65.48;95850.00;5050077;28;20179;-71
2022/07/21 05:38:21;;;;;;;1999.90;999.90;;;;;;;23.54;65.71;95848.72;5048632;28;20025;-72
2022/07/21 05:40:47;;;;;;;1999.90;999.90;;;;;;;24.15;63.91;95862.22;5049896;28;20033;-72
2022/07/21 05:43:13;;;;;;;1999.90;999.90;;;;;;;24.11;64.38;95845.91;5049877;28;20082;-71
2022/07/21 05:45:38;;;;;;;1999.90;999.90;;;;;;;24.05;64.64;95850.88;5049686;28;20052;-73
2022/07/21 05:48:04;;;;;;;1999.90;999.90;;;;;;;23.83;64.94;95835.50;5051066;28;20047;-71
2022/07/21 05:50:29;;;;;;;1999.90;999.90;;;;;;;24.27;63.79;95845.66;5050742;28;20025;-72
2022/07/21 05:52:55;;;;;;;1999.90;999.90;;;;;;;24.27;63.09;95856.53;5049274;28;20091;-71
2022/07/21 05:55:20;;;;;;;1999.90;999.90;;;;;;;24.69;63.03;95879.81;5050370;28;20025;-71
2022/07/21 05:57:45;;;;;;;1999.90;999.90;;;;;;;24.38;63.37;95844.59;5049955;28;20036;-73
2022/07/21 06:00:11;;;;;;;1999.90;999.90;;;;;;;24.86;62.04;95860.13;5050740;28;20020;-71
2022/07/21 06:02:37;;;;;;;1999.90;999.90;;;;;;;24.46;63.00;95864.47;5048194;28;20067;-72
2022/07/21 06:05:02;;;;;;;1999.90;999.90;;;;;;;23.38;65.15;95782.22;5050610;28;20057;-71
2022/07/21 06:07:28;;;;;;;1999.90;999.90;;;;;;;24.09;64.18;95859.06;5049654;28;20628;-71
2022/07/21 06:09:53;;;;;;;1999.90;999.90;;;;;;;23.81;64.95;95851.41;5050467;28;20025;-71
2022/07/21 06:12:18;;;;;;;1999.90;999.90;;;;;;;24.92;62.21;95874.91;5047746;28;20465;-72
2022/07/21 06:14:44;;;;;;;1999.90;999.90;;;;;;;24.17;64.37;95859.94;5049113;28;20029;-72
2022/07/21 06:17:09;;;;;;;1999.90;999.90;;;;;;;24.57;63.14;95880.91;5049348;28;20087;-74
2022/07/21 06:19:34;;;;;;;1999.90;999.90;;;;;;;24.09;64.61;95878.09;5050374;28;20029;-71
2022/07/21 06:22:01;;;;;;;1999.90;999.90;;;;;;;24.48;63.38;95894.03;5050428;28;20057;-71
2022/07/21 06:24:27;;;;;;;1999.90;999.90;;;;;;;25.08;61.98;95872.75;5049231;28;20029;-72
2022/07/21 06:26:55;;;;;;;1999.90;999.90;;;;;;;25.23;61.33;95895.38;5050016;28;20040;-72
2022/07/21 06:29:23;;;;;;;1999.90;999.90;;;;;;;24.86;61.75;95888.09;5050844;28;20021;-72
2022/07/21 06:31:49;;;;;;;1999.90;999.90;;;;;;;24.11;64.77;95882.00;5049831;28;20036;-72
2022/07/21 06:34:14;;;;;;;1999.90;999.90;;;;;;;24.09;65.46;95906.03;5050329;28;20365;-72
2022/07/21 06:36:39;;;;;;;1999.90;999.90;;;;;;;24.00;66.17;95897.41;5048689;28;20124;-71
2022/07/21 06:39:05;;;;;;;1999.90;999.90;;;;;;;24.43;64.97;95897.09;5049154;28;20246;-72
2022/07/21 06:41:31;;;;;;;1999.90;999.90;;;;;;;23.85;66.05;95885.63;5047788;28;20425;-72
2022/07/21 06:43:56;;;;;;;1999.90;999.90;;;;;;;23.99;66.17;95919.53;5047673;28;20481;-72
2022/07/21 06:46:21;;;;;;;1999.90;999.90;;;;;;;24.52;64.69;95900.28;5049069;28;20044;-71
2022/07/21 06:48:47;;;;;;;1999.90;999.90;;;;;;;24.06;65.85;95917.69;5049792;28;20025;-72
2022/07/21 06:51:12;;;;;;;1999.90;999.90;;;;;;;24.71;63.59;95910.91;5049939;28;20028;-71
2022/07/21 06:53:37;;;;;;;1999.90;999.90;;;;;;;24.54;63.97;95897.97;5046284;28;20052;-71
2022/07/21 06:56:03;;;;;;;1999.90;999.90;;;;;;;24.80;62.52;95905.94;5047044;28;20040;-73
2022/07/21 06:58:28;;;;;;;1999.90;999.90;;;;;;;23.99;64.85;95876.03;5048389;28;20112;-74
2022/07/21 07:00:54;;;;;;;1999.90;999.90;;;;;;;24.99;62.32;95915.81;5049578;28;20021;-71
2022/07/21 07:03:20;;;;;;;1999.90;999.90;;;;;;;24.86;62.42;95917.25;5049280;28;20021;-72
2022/07/21 07:05:47;;;;;;;1999.90;999.90;;;;;;;23.86;65.46;95911.63;5047454;28;20516;-73
2022/07/21 07:08:13;;;;;;;1999.90;999.90;;;;;;;23.71;65.32;95890.88;5047358;28;20032;-73
2022/07/21 07:10:42;;;;;;;1999.90;999.90;;;;;;;23.95;64.69;95929.56;5064888;28;20021;-71
2022/07/21 07:13:08;;;;;;;1999.90;999.90;;;;;;;24.02;64.21;95900.53;5046867;28;20029;-67
2022/07/21 07:15:33;;;;;;;1999.90;999.90;;;;;;;24.90;61.70;95902.53;5047962;28;20476;-69
2022/07/21 07:17:59;;;;;;;1999.90;999.90;;;;;;;24.67;61.27;95918.28;5048106;28;20032;-69
2022/07/21 07:20:24;;;;;;;1999.90;999.90;;;;;;;24.84;61.43;95904.03;5047407;28;20121;-66
2022/07/21 07:22:50;;;;;;;1999.90;999.90;;;;;;;25.91;58.47;95921.03;5047935;28;20016;-69
2022/07/21 07:25:18;;;;;;;1999.90;999.90;;;;;;;25.61;58.60;95924.00;5048451;28;20025;-68
2022/07/21 07:27:45;;;;;;;1999.90;999.90;;;;;;;25.31;59.43;95932.38;5046543;28;20036;-65
2022/07/21 07:30:12;;;;;;;1999.90;999.90;;;;;;;25.15;59.43;95891.06;5049219;28;20017;-67
2022/07/21 07:32:37;;;;;;;1999.90;999.90;;;;;;;24.55;60.26;95875.03;5047666;28;20036;-69
2022/07/21 07:35:03;;;;;;;1999.90;999.90;;;;;;;24.67;59.33;95830.44;5048883;28;20016;-68
2022/07/21 07:37:28;;;;;;;1999.90;999.90;;;;;;;25.43;59.18;95912.22;5047593;28;20035;-68
2022/07/21 07:39:54;;;;;;;1999.90;999.90;;;;;;;26.91;54.27;95914.97;5047633;28;20035;-66
2022/07/21 07:42:19;;;;;;;1999.90;999.90;;;;;;;25.39;57.08;95917.66;5047760;28;20128;-68
2022/07/21 07:44:46;;;;;;;1999.90;999.90;;;;;;;25.49;57.31;95901.72;5047622;28;20128;-68
2022/07/21 07:47:11;;;;;;;1999.90;999.90;;;;;;;25.81;56.57;95904.66;5050348;28;20031;-69
2022/07/21 07:49:37;;;;;;;1999.90;999.90;;;;;;;25.10;57.88;95853.31;5048380;28;20129;-70
2022/07/21 07:52:02;;;;;;;1999.90;999.90;;;;;;;26.69;54.74;95906.00;5048061;28;20481;-69
2022/07/21 07:54:28;;;;;;;1999.90;999.90;;;;;;;25.76;55.11;95918.66;5047248;28;20021;-69
2022/07/21 07:56:53;;;;;;;1999.90;999.90;;;;;;;25.79;54.83;95901.50;5049240;28;20051;-69
2022/07/21 07:59:18;;;;;;;1999.90;999.90;;;;;;;25.62;55.40;95914.66;5051176;28;20013;-71
2022/07/21 08:01:44;;;;;;;1999.90;999.90;;;;;;;26.29;53.76;95921.53;5060440;28;20393;-70
2022/07/21 08:04:09;;;;;;;1999.90;999.90;;;;;;;26.10;53.99;95889.94;5048017;28;20420;-71
2022/07/21 08:06:34;;;;;;;1999.90;999.90;;;;;;;26.63;53.20;95905.63;5048183;28;20029;-72
2022/07/21 08:09:00;;;;;;;1999.90;999.90;;;;;;;25.65;55.97;95918.56;5047196;28;20028;-72
2022/07/21 08:11:25;;;;;;;1999.90;999.90;;;;;;;25.98;55.23;95914.03;5049635;28;20036;-72
2022/07/21 08:13:51;;;;;;;1999.90;999.90;;;;;;;25.54;56.16;95929.41;5056785;28;20025;-71
2022/07/21 08:16:16;;;;;;;1999.90;999.90;;;;;;;25.37;56.09;95886.50;5049864;28;20025;-71
2022/07/21 08:18:42;;;;;;;1999.90;999.90;;;;;;;25.73;56.16;95924.81;5051112;28;20048;-67
2022/07/21 08:21:08;;;;;;;1999.90;999.90;;;;;;;25.12;57.38;95919.81;5051714;28;20052;-69
2022/07/21 08:23:34;;;;;;;1999.90;999.90;;;;;;;24.45;59.01;95890.09;5051647;28;20031;-69
2022/07/21 08:25:59;;;;;;;1999.90;999.90;;;;;;;24.50;57.59;95848.19;5051051;28;20032;-69
2022/07/21 08:28:25;;;;;;;1999.90;999.90;;;;;;;24.64;58.80;95911.66;5051129;28;20111;-67
2022/07/21 08:30:50;;;;;;;1999.90;999.90;;;;;;;25.44;57.24;95921.16;5052831;28;20538;-65
2022/07/21 08:33:16;;;;;;;1999.90;999.90;;;;;;;25.68;55.87;95925.97;5049516;28;20025;-67
2022/07/21 08:35:41;;;;;;;1999.90;999.90;;;;;;;24.92;56.75;95865.97;5052897;28;20029;-67
2022/07/21 08:38:08;;;;;;;1999.90;999.90;;;;;;;24.98;58.03;95938.75;5052295;28;20081;-67
2022/07/21 08:40:37;;;;;;;1999.90;999.90;;;;;;;24.76;58.74;95945.94;5050754;28;20108;-66
2022/07/21 08:43:03;;;;;;;1999.90;999.90;;;;;;;24.20;60.58;95948.88;5049946;28;20021;-66
2022/07/21 08:45:30;;;;;;;1999.90;999.90;;;;;;;24.15;59.93;95892.91;5051176;28;20036;-67
2022/07/21 08:47:56;;;;;;;1999.90;999.90;;;;;;;23.68;62.40;95909.84;5050570;28;20033;-66
2022/07/21 08:50:23;;;;;;;1999.90;999.90;;;;;;;24.49;60.92;95942.59;5051018;28;20024;-66
2022/07/21 08:52:49;;;;;;;1999.90;999.90;;;;;;;24.21;61.18;95915.09;5050877;28;20078;-66
2022/07/21 08:55:14;;;;;;;1999.90;999.90;;;;;;;25.35;58.52;95949.53;5052087;28;20663;-66
2022/07/21 08:57:40;;;;;;;1999.90;999.90;;;;;;;24.31;61.27;95942.41;5052105;28;20028;-66
2022/07/21 09:00:08;;;;;;;1999.90;999.90;;;;;;;24.20;60.87;95864.59;5051394;28;20108;-66
2022/07/21 09:02:35;;;;;;;1999.90;999.90;;;;;;;25.19;59.06;95953.72;5049052;28;20037;-66
2022/07/21 09:05:01;;;;;;;1999.90;999.90;;;;;;;24.43;60.83;95938.66;5048702;28;20618;-66
2022/07/21 09:07:27;;;;;;;1999.90;999.90;;;;;;;24.97;59.09;95937.16;5049352;28;20033;-66
2022/07/21 09:09:57;;;;;;;1999.90;999.90;;;;;;;25.01;58.50;95935.25;5051835;28;20033;-66
2022/07/21 09:12:26;;;;;;;1999.90;999.90;;;;;;;24.04;61.05;95933.56;5049408;28;20549;-66
2022/07/21 09:14:52;;;;;;;1999.90;999.90;;;;;;;24.34;60.54;95936.22;5050639;28;20525;-66
2022/07/21 09:17:19;;;;;;;1999.90;999.90;;;;;;;25.00;59.72;95958.19;5050974;28;20074;-66
2022/07/21 09:19:46;;;;;;;1999.90;999.90;;;;;;;24.95;59.28;95963.22;5051745;28;20507;-65
2022/07/21 09:22:18;;;;;;;1999.90;999.90;;;;;;;24.28;60.86;95967.59;5050543;28;20032;-66
2022/07/21 09:24:48;;;;;;;1999.90;999.90;;;;;;;24.34;60.69;95941.66;5051999;28;20017;-66
2022/07/21 09:27:25;;;;;;;1999.90;999.90;;;;;;;24.84;59.17;95963.13;5047907;28;20059;-67
2022/07/21 09:29:56;;;;;;;1999.90;999.90;;;;;;;24.83;59.40;95961.56;5048445;28;20033;-67
2022/07/21 09:32:34;;;;;;;1999.90;999.90;;;;;;;24.83;58.71;95934.34;5050584;28;20037;-68
2022/07/21 09:35:10;;;;;;;1999.90;999.90;;;;;;;24.02;61.36;95952.19;5050581;28;20104;-66
2022/07/21 09:37:37;;;;;;;1999.90;999.90;;;;;;;24.00;62.08;95970.78;5051265;28;20562;-67
2022/07/21 09:40:07;;;;;;;1999.90;999.90;;;;;;;24.67;60.41;95967.25;5051192;28;20188;-66
2022/07/21 09:42:35;;;;;;;1999.90;999.90;;;;;;;23.99;62.76;95957.56;5049597;28;20017;-66
2022/07/21 09:45:06;;;;;;;1999.90;999.90;;;;;;;23.07;65.00;95904.34;5047980;28;20029;-66
2022/07/21 09:47:33;;;;;;;1999.90;999.90;;;;;;;23.09;66.18;95945.50;5046406;28;20033;-66
2022/07/21 09:50:00;;;;;;;1999.90;999.90;;;;;;;23.12;68.04;95986.59;5049528;28;20531;-66
2022/07/21 09:52:36;;;;;;;1999.90;999.90;;;;;;;22.31;72.04;95990.22;5050566;28;20037;-65
2022/07/21 09:55:10;;;;;;;1999.90;999.90;;;;;;;22.72;70.29;95980.50;5049754;28;20501;-66
2022/07/21 09:57:35;;;;;;;1999.90;999.90;;;;;;;23.36;68.55;95986.19;5050896;28;20504;-66
2022/07/21 10:00:06;;;;;;;1999.90;999.90;;;;;;;23.47;66.89;95962.69;5050193;28;20103;-66
2022/07/21 10:02:32;;;;;;;1999.90;999.90;;;;;;;24.29;65.67;95984.69;5047929;28;20547;-66
2022/07/21 10:05:07;;;;;;;1999.90;999.90;;;;;;;24.37;63.85;95979.00;5050707;28;20041;-66
2022/07/21 10:07:35;;;;;;;1999.90;999.90;;;;;;;24.20;62.38;95986.91;5049085;28;20037;-66
2022/07/21 10:10:01;;;;;;;1999.90;999.90;;;;;;;23.60;64.26;95955.13;5049653;28;20055;-66
2022/07/21 10:12:27;;;;;;;1999.90;999.90;;;;;;;23.40;65.51;95975.41;5049287;28;20025;-66
2022/07/21 10:14:53;;;;;;;1999.90;999.90;;;;;;;24.25;64.24;95968.34;5048510;28;20040;-66
2022/07/21 10:17:21;;;;;;;1999.90;999.90;;;;;;;24.44;62.03;95988.38;5048511;28;20107;-66
2022/07/21 10:19:58;;;;;;;1999.90;999.90;;;;;;;24.18;61.44;95995.47;5049925;28;20441;-66
2022/07/21 10:22:35;;;;;;;1999.90;999.90;;;;;;;24.60;61.18;95991.66;5047981;28;20445;-66
2022/07/21 10:25:01;;;;;;;1999.90;999.90;;;;;;;24.96;59.50;95979.16;5065423;28;20021;-66
2022/07/21 10:27:26;;;;;;;1999.90;999.90;;;;;;;23.34;66.35;95956.72;5049879;28;20033;-65
2022/07/21 10:30:00;;;;;;;1999.90;999.90;;;;;;;24.50;64.27;95965.13;5048010;28;20461;-66
2022/07/21 10:32:34;;;;;;;1999.90;999.90;;;;;;;25.54;61.46;95985.81;5048528;28;20070;-68
2022/07/21 10:35:20;;;;;;;1999.90;999.90;;;;;;;26.25;59.38;95988.91;5047308;28;20104;-68
2022/07/21 10:37:47;;;;;;;1999.90;999.90;;;;;;;25.27;60.97;95999.66;5045166;28;20021;-67
2022/07/21 10:40:18;;;;;;;1999.90;999.90;;;;;;;26.34;58.49;95989.34;5030192;28;20517;-66
2022/07/21 10:42:43;;;;;;;1999.90;999.90;;;;;;;26.64;57.80;95956.31;5028599;28;20064;-67
2022/07/21 10:45:31;;;;;;;1999.90;999.90;;;;;;;26.86;56.18;95980.88;5039681;28;20068;-66
2022/07/21 10:47:58;;;;;;;1999.90;999.90;;;;;;;26.78;56.18;95973.88;5049164;28;20036;-67
2022/07/21 10:50:41;;;;;;;1999.90;999.90;;;;;;;27.17;55.06;95979.34;5047830;28;20033;-66
2022/07/21 10:53:13;;;;;;;1999.90;999.90;;;;;;;27.30;54.24;95985.97;5048346;28;20040;-69
2022/07/21 10:55:46;;;;;;;1999.90;999.90;;;;;;;27.12;54.09;95980.50;5048963;28;20033;-68
2022/07/21 10:58:24;;;;;;;1999.90;999.90;;;;;;;26.77;54.74;95986.75;5048671;28;20025;-68